sensor_id;sensor_type;location;lat;lon;timestamp;P1;durP1;ratioP1;P2;durP2;ratioP2
56399;SDS011;42298;53.638;9.876;2023-04-25T00:01:03;15.67;;;5.70;;
56399;SDS011;42298;53.638;9.876;2023-04-25T00:03:29;17.13;;;5.50;;
56399;SDS011;42298;53.638;9.876;2023-04-25T00:05:55;17.40;;;5.47;;
56399;SDS011;42298;53.638;9.876;2023-04-25T00:08:21;20.60;;;6.00;;
56399;SDS011;42298;53.638;9.876;2023-04-25T00:10:48;16.30;;;5.33;;
56399;SDS011;42298;53.638;9.876;2023-04-25T00:13:14;14.73;;;5.60;;
56399;SDS011;42298;53.638;9.876;2023-04-25T00:15:42;15.00;;;5.47;;
56399;SDS011;42298;53.638;9.876;2023-04-25T00:18:08;16.70;;;4.80;;
56399;SDS011;42298;53.638;9.876;2023-04-25T00:20:34;18.87;;;5.60;;
56399;SDS011;42298;53.638;9.876;2023-04-25T00:23:00;17.93;;;4.83;;
56399;SDS011;42298;53.638;9.876;2023-04-25T00:25:26;24.67;;;5.73;;
56399;SDS011;42298;53.638;9.876;2023-04-25T00:27:51;17.57;;;4.37;;
56399;SDS011;42298;53.638;9.876;2023-04-25T00:30:17;28.23;;;5.20;;
56399;SDS011;42298;53.638;9.876;2023-04-25T00:32:42;21.10;;;4.70;;
56399;SDS011;42298;53.638;9.876;2023-04-25T00:35:08;19.87;;;4.97;;
56399;SDS011;42298;53.638;9.876;2023-04-25T00:37:35;15.87;;;4.37;;
56399;SDS011;42298;53.638;9.876;2023-04-25T00:40:00;21.30;;;4.70;;
56399;SDS011;42298;53.638;9.876;2023-04-25T00:42:27;22.57;;;5.33;;
56399;SDS011;42298;53.638;9.876;2023-04-25T00:44:53;17.13;;;5.13;;
56399;SDS011;42298;53.638;9.876;2023-04-25T00:47:20;26.87;;;6.13;;
56399;SDS011;42298;53.638;9.876;2023-04-25T00:49:45;17.87;;;4.90;;
56399;SDS011;42298;53.638;9.876;2023-04-25T00:52:11;20.20;;;5.20;;
56399;SDS011;42298;53.638;9.876;2023-04-25T00:54:37;23.27;;;5.30;;
56399;SDS011;42298;53.638;9.876;2023-04-25T00:57:02;18.87;;;4.87;;
56399;SDS011;42298;53.638;9.876;2023-04-25T00:59:28;22.43;;;5.00;;
56399;SDS011;42298;53.638;9.876;2023-04-25T01:01:55;20.20;;;5.07;;
56399;SDS011;42298;53.638;9.876;2023-04-25T01:04:21;20.33;;;5.93;;
56399;SDS011;42298;53.638;9.876;2023-04-25T01:06:46;20.97;;;5.67;;
56399;SDS011;42298;53.638;9.876;2023-04-25T01:09:13;23.77;;;5.60;;
56399;SDS011;42298;53.638;9.876;2023-04-25T01:11:39;23.03;;;5.80;;
56399;SDS011;42298;53.638;9.876;2023-04-25T01:14:05;20.70;;;5.33;;
56399;SDS011;42298;53.638;9.876;2023-04-25T01:16:32;23.50;;;6.07;;
56399;SDS011;42298;53.638;9.876;2023-04-25T01:18:58;21.20;;;5.63;;
56399;SDS011;42298;53.638;9.876;2023-04-25T01:21:24;25.17;;;6.17;;
56399;SDS011;42298;53.638;9.876;2023-04-25T01:23:52;20.17;;;6.20;;
56399;SDS011;42298;53.638;9.876;2023-04-25T01:26:18;25.97;;;6.47;;
56399;SDS011;42298;53.638;9.876;2023-04-25T01:28:46;27.77;;;5.90;;
56399;SDS011;42298;53.638;9.876;2023-04-25T01:31:12;23.50;;;5.80;;
56399;SDS011;42298;53.638;9.876;2023-04-25T01:33:38;29.50;;;6.03;;
56399;SDS011;42298;53.638;9.876;2023-04-25T01:36:03;24.67;;;5.67;;
56399;SDS011;42298;53.638;9.876;2023-04-25T01:38:29;22.07;;;5.53;;
56399;SDS011;42298;53.638;9.876;2023-04-25T01:40:54;19.30;;;5.50;;
56399;SDS011;42298;53.638;9.876;2023-04-25T01:43:21;21.47;;;5.00;;
56399;SDS011;42298;53.638;9.876;2023-04-25T01:45:46;20.10;;;5.67;;
56399;SDS011;42298;53.638;9.876;2023-04-25T01:48:14;18.97;;;5.07;;
56399;SDS011;42298;53.638;9.876;2023-04-25T01:50:40;25.10;;;5.50;;
56399;SDS011;42298;53.638;9.876;2023-04-25T01:53:05;20.27;;;4.97;;
56399;SDS011;42298;53.638;9.876;2023-04-25T01:55:31;24.70;;;5.23;;
56399;SDS011;42298;53.638;9.876;2023-04-25T01:57:56;16.83;;;5.13;;
56399;SDS011;42298;53.638;9.876;2023-04-25T02:00:23;19.07;;;5.33;;
56399;SDS011;42298;53.638;9.876;2023-04-25T02:02:48;22.53;;;5.67;;
56399;SDS011;42298;53.638;9.876;2023-04-25T02:05:15;21.90;;;5.10;;
56399;SDS011;42298;53.638;9.876;2023-04-25T02:07:41;15.70;;;4.30;;
56399;SDS011;42298;53.638;9.876;2023-04-25T02:10:07;20.23;;;5.53;;
56399;SDS011;42298;53.638;9.876;2023-04-25T02:12:32;17.83;;;5.50;;
56399;SDS011;42298;53.638;9.876;2023-04-25T02:14:58;19.73;;;4.83;;
56399;SDS011;42298;53.638;9.876;2023-04-25T02:17:23;24.83;;;5.77;;
56399;SDS011;42298;53.638;9.876;2023-04-25T02:19:48;20.43;;;4.97;;
56399;SDS011;42298;53.638;9.876;2023-04-25T02:22:13;21.80;;;5.93;;
56399;SDS011;42298;53.638;9.876;2023-04-25T02:24:39;19.67;;;5.00;;
56399;SDS011;42298;53.638;9.876;2023-04-25T02:27:04;21.73;;;4.77;;
56399;SDS011;42298;53.638;9.876;2023-04-25T02:29:29;24.67;;;5.30;;
56399;SDS011;42298;53.638;9.876;2023-04-25T02:31:55;21.60;;;5.10;;
56399;SDS011;42298;53.638;9.876;2023-04-25T02:34:20;25.40;;;5.70;;
56399;SDS011;42298;53.638;9.876;2023-04-25T02:36:46;22.47;;;5.17;;
56399;SDS011;42298;53.638;9.876;2023-04-25T02:39:18;23.57;;;5.13;;
56399;SDS011;42298;53.638;9.876;2023-04-25T02:41:43;19.57;;;5.10;;
56399;SDS011;42298;53.638;9.876;2023-04-25T02:44:09;18.97;;;5.40;;
56399;SDS011;42298;53.638;9.876;2023-04-25T02:46:34;22.03;;;5.60;;
56399;SDS011;42298;53.638;9.876;2023-04-25T02:49:00;19.63;;;5.07;;
56399;SDS011;42298;53.638;9.876;2023-04-25T02:51:25;19.03;;;5.33;;
56399;SDS011;42298;53.638;9.876;2023-04-25T02:53:51;19.20;;;5.57;;
56399;SDS011;42298;53.638;9.876;2023-04-25T02:56:16;20.33;;;4.70;;
56399;SDS011;42298;53.638;9.876;2023-04-25T02:58:41;19.20;;;5.97;;
56399;SDS011;42298;53.638;9.876;2023-04-25T03:01:07;19.90;;;4.90;;
56399;SDS011;42298;53.638;9.876;2023-04-25T03:03:32;19.33;;;5.53;;
56399;SDS011;42298;53.638;9.876;2023-04-25T03:05:57;20.17;;;5.27;;
56399;SDS011;42298;53.638;9.876;2023-04-25T03:08:22;21.53;;;4.77;;
56399;SDS011;42298;53.638;9.876;2023-04-25T03:10:48;17.43;;;4.47;;
56399;SDS011;42298;53.638;9.876;2023-04-25T03:13:16;19.57;;;5.07;;
56399;SDS011;42298;53.638;9.876;2023-04-25T03:15:41;17.93;;;4.67;;
56399;SDS011;42298;53.638;9.876;2023-04-25T03:18:06;20.40;;;5.00;;
56399;SDS011;42298;53.638;9.876;2023-04-25T03:20:31;22.83;;;5.13;;
56399;SDS011;42298;53.638;9.876;2023-04-25T03:22:57;15.20;;;4.43;;
56399;SDS011;42298;53.638;9.876;2023-04-25T03:25:22;21.37;;;5.07;;
56399;SDS011;42298;53.638;9.876;2023-04-25T03:27:47;19.07;;;4.83;;
56399;SDS011;42298;53.638;9.876;2023-04-25T03:30:13;17.67;;;4.73;;
56399;SDS011;42298;53.638;9.876;2023-04-25T03:32:38;16.37;;;4.63;;
56399;SDS011;42298;53.638;9.876;2023-04-25T03:35:04;16.50;;;4.77;;
56399;SDS011;42298;53.638;9.876;2023-04-25T03:37:30;17.80;;;4.57;;
56399;SDS011;42298;53.638;9.876;2023-04-25T03:39:55;18.23;;;5.30;;
56399;SDS011;42298;53.638;9.876;2023-04-25T03:42:21;18.20;;;4.50;;
56399;SDS011;42298;53.638;9.876;2023-04-25T03:44:48;15.80;;;4.33;;
56399;SDS011;42298;53.638;9.876;2023-04-25T03:47:13;19.57;;;4.63;;
56399;SDS011;42298;53.638;9.876;2023-04-25T03:49:39;18.13;;;5.50;;
56399;SDS011;42298;53.638;9.876;2023-04-25T03:52:06;19.30;;;4.50;;
56399;SDS011;42298;53.638;9.876;2023-04-25T03:54:31;15.33;;;4.17;;
56399;SDS011;42298;53.638;9.876;2023-04-25T03:56:56;18.77;;;4.63;;
56399;SDS011;42298;53.638;9.876;2023-04-25T03:59:21;15.83;;;4.30;;
56399;SDS011;42298;53.638;9.876;2023-04-25T04:01:47;16.37;;;4.73;;
56399;SDS011;42298;53.638;9.876;2023-04-25T04:04:12;15.33;;;4.67;;
56399;SDS011;42298;53.638;9.876;2023-04-25T04:06:37;14.07;;;4.27;;
56399;SDS011;42298;53.638;9.876;2023-04-25T04:09:03;20.07;;;5.27;;
56399;SDS011;42298;53.638;9.876;2023-04-25T04:11:28;15.73;;;3.97;;
56399;SDS011;42298;53.638;9.876;2023-04-25T04:13:56;18.13;;;4.93;;
56399;SDS011;42298;53.638;9.876;2023-04-25T04:16:21;15.93;;;4.60;;
56399;SDS011;42298;53.638;9.876;2023-04-25T04:18:46;16.07;;;4.20;;
56399;SDS011;42298;53.638;9.876;2023-04-25T04:21:12;22.13;;;4.30;;
56399;SDS011;42298;53.638;9.876;2023-04-25T04:23:37;16.50;;;4.10;;
56399;SDS011;42298;53.638;9.876;2023-04-25T04:26:02;15.33;;;4.13;;
56399;SDS011;42298;53.638;9.876;2023-04-25T04:28:28;13.87;;;3.57;;
56399;SDS011;42298;53.638;9.876;2023-04-25T04:30:53;16.37;;;4.33;;
56399;SDS011;42298;53.638;9.876;2023-04-25T04:33:20;14.23;;;4.40;;
56399;SDS011;42298;53.638;9.876;2023-04-25T04:35:46;19.10;;;4.00;;
56399;SDS011;42298;53.638;9.876;2023-04-25T04:38:12;16.53;;;4.13;;
56399;SDS011;42298;53.638;9.876;2023-04-25T04:40:40;14.73;;;4.00;;
56399;SDS011;42298;53.638;9.876;2023-04-25T04:43:07;17.40;;;4.63;;
56399;SDS011;42298;53.638;9.876;2023-04-25T04:45:33;20.10;;;4.30;;
56399;SDS011;42298;53.638;9.876;2023-04-25T04:47:59;18.60;;;4.40;;
56399;SDS011;42298;53.638;9.876;2023-04-25T04:50:24;13.83;;;4.03;;
56399;SDS011;42298;53.638;9.876;2023-04-25T04:52:50;15.97;;;4.77;;
56399;SDS011;42298;53.638;9.876;2023-04-25T04:55:17;19.53;;;3.53;;
56399;SDS011;42298;53.638;9.876;2023-04-25T04:57:42;13.33;;;3.90;;
56399;SDS011;42298;53.638;9.876;2023-04-25T05:00:08;17.17;;;4.33;;
56399;SDS011;42298;53.638;9.876;2023-04-25T05:02:36;20.97;;;4.53;;
56399;SDS011;42298;53.638;9.876;2023-04-25T05:05:03;14.07;;;3.90;;
56399;SDS011;42298;53.638;9.876;2023-04-25T05:07:30;12.97;;;3.40;;
56399;SDS011;42298;53.638;9.876;2023-04-25T05:09:55;17.97;;;4.73;;
56399;SDS011;42298;53.638;9.876;2023-04-25T05:12:20;15.93;;;4.43;;
56399;SDS011;42298;53.638;9.876;2023-04-25T05:14:45;14.37;;;4.30;;
56399;SDS011;42298;53.638;9.876;2023-04-25T05:17:11;14.07;;;3.87;;
56399;SDS011;42298;53.638;9.876;2023-04-25T05:19:39;14.90;;;3.97;;
56399;SDS011;42298;53.638;9.876;2023-04-25T05:22:07;16.90;;;4.20;;
56399;SDS011;42298;53.638;9.876;2023-04-25T05:24:32;14.23;;;3.37;;
56399;SDS011;42298;53.638;9.876;2023-04-25T05:26:58;13.43;;;3.77;;
56399;SDS011;42298;53.638;9.876;2023-04-25T05:29:23;15.97;;;4.10;;
56399;SDS011;42298;53.638;9.876;2023-04-25T05:31:48;13.73;;;3.73;;
56399;SDS011;42298;53.638;9.876;2023-04-25T05:34:15;18.27;;;3.93;;
56399;SDS011;42298;53.638;9.876;2023-04-25T05:36:41;18.90;;;4.00;;
56399;SDS011;42298;53.638;9.876;2023-04-25T05:39:09;18.83;;;4.27;;
56399;SDS011;42298;53.638;9.876;2023-04-25T05:41:34;16.73;;;4.07;;
56399;SDS011;42298;53.638;9.876;2023-04-25T05:44:00;13.07;;;3.70;;
56399;SDS011;42298;53.638;9.876;2023-04-25T05:46:25;13.40;;;3.63;;
56399;SDS011;42298;53.638;9.876;2023-04-25T05:48:50;19.43;;;4.23;;
56399;SDS011;42298;53.638;9.876;2023-04-25T05:51:17;16.53;;;3.73;;
56399;SDS011;42298;53.638;9.876;2023-04-25T05:53:43;17.57;;;4.30;;
56399;SDS011;42298;53.638;9.876;2023-04-25T05:56:09;16.33;;;3.40;;
56399;SDS011;42298;53.638;9.876;2023-04-25T05:58:34;16.20;;;4.00;;
56399;SDS011;42298;53.638;9.876;2023-04-25T06:00:59;15.60;;;4.17;;
56399;SDS011;42298;53.638;9.876;2023-04-25T06:03:25;17.07;;;4.40;;
56399;SDS011;42298;53.638;9.876;2023-04-25T06:05:50;15.67;;;4.20;;
56399;SDS011;42298;53.638;9.876;2023-04-25T06:08:16;19.13;;;4.20;;
56399;SDS011;42298;53.638;9.876;2023-04-25T06:10:41;16.03;;;3.70;;
56399;SDS011;42298;53.638;9.876;2023-04-25T06:13:06;17.03;;;4.50;;
56399;SDS011;42298;53.638;9.876;2023-04-25T06:15:32;12.50;;;3.93;;
56399;SDS011;42298;53.638;9.876;2023-04-25T06:17:58;12.60;;;3.73;;
56399;SDS011;42298;53.638;9.876;2023-04-25T06:20:24;20.57;;;4.50;;
56399;SDS011;42298;53.638;9.876;2023-04-25T06:22:49;16.17;;;4.60;;
56399;SDS011;42298;53.638;9.876;2023-04-25T06:25:16;16.63;;;4.37;;
56399;SDS011;42298;53.638;9.876;2023-04-25T06:27:43;13.50;;;4.03;;
56399;SDS011;42298;53.638;9.876;2023-04-25T06:30:09;18.13;;;4.20;;
56399;SDS011;42298;53.638;9.876;2023-04-25T06:32:36;16.20;;;4.40;;
56399;SDS011;42298;53.638;9.876;2023-04-25T06:35:01;17.77;;;4.47;;
56399;SDS011;42298;53.638;9.876;2023-04-25T06:37:27;15.50;;;4.00;;
56399;SDS011;42298;53.638;9.876;2023-04-25T06:39:52;14.17;;;4.37;;
56399;SDS011;42298;53.638;9.876;2023-04-25T06:42:17;15.63;;;3.77;;
56399;SDS011;42298;53.638;9.876;2023-04-25T06:44:43;15.13;;;3.97;;
56399;SDS011;42298;53.638;9.876;2023-04-25T06:47:08;20.27;;;4.37;;
56399;SDS011;42298;53.638;9.876;2023-04-25T06:49:33;13.63;;;3.53;;
56399;SDS011;42298;53.638;9.876;2023-04-25T06:51:59;14.80;;;3.80;;
56399;SDS011;42298;53.638;9.876;2023-04-25T06:54:24;13.13;;;3.10;;
56399;SDS011;42298;53.638;9.876;2023-04-25T06:56:52;13.63;;;3.47;;
56399;SDS011;42298;53.638;9.876;2023-04-25T06:59:17;12.77;;;3.33;;
56399;SDS011;42298;53.638;9.876;2023-04-25T07:01:42;16.23;;;3.50;;
56399;SDS011;42298;53.638;9.876;2023-04-25T07:04:08;8.67;;;2.83;;
56399;SDS011;42298;53.638;9.876;2023-04-25T07:06:34;13.90;;;3.53;;
56399;SDS011;42298;53.638;9.876;2023-04-25T07:09:03;16.93;;;3.30;;
56399;SDS011;42298;53.638;9.876;2023-04-25T07:11:28;13.50;;;3.07;;
56399;SDS011;42298;53.638;9.876;2023-04-25T07:13:53;13.50;;;3.03;;
56399;SDS011;42298;53.638;9.876;2023-04-25T07:16:19;13.00;;;3.50;;
56399;SDS011;42298;53.638;9.876;2023-04-25T07:18:44;12.13;;;3.77;;
56399;SDS011;42298;53.638;9.876;2023-04-25T07:21:09;16.30;;;3.23;;
56399;SDS011;42298;53.638;9.876;2023-04-25T07:23:35;13.70;;;4.10;;
56399;SDS011;42298;53.638;9.876;2023-04-25T07:26:00;14.03;;;3.40;;
56399;SDS011;42298;53.638;9.876;2023-04-25T07:28:25;14.63;;;3.27;;
56399;SDS011;42298;53.638;9.876;2023-04-25T07:30:54;12.30;;;3.27;;
56399;SDS011;42298;53.638;9.876;2023-04-25T07:33:19;13.13;;;3.67;;
56399;SDS011;42298;53.638;9.876;2023-04-25T07:35:45;15.03;;;3.63;;
56399;SDS011;42298;53.638;9.876;2023-04-25T07:38:18;12.93;;;3.10;;
56399;SDS011;42298;53.638;9.876;2023-04-25T07:40:43;13.93;;;3.17;;
56399;SDS011;42298;53.638;9.876;2023-04-25T07:43:08;13.60;;;2.93;;
56399;SDS011;42298;53.638;9.876;2023-04-25T07:45:34;10.43;;;2.97;;
56399;SDS011;42298;53.638;9.876;2023-04-25T07:47:59;16.17;;;3.03;;
56399;SDS011;42298;53.638;9.876;2023-04-25T07:50:24;17.83;;;3.67;;
56399;SDS011;42298;53.638;9.876;2023-04-25T07:52:50;16.30;;;3.43;;
56399;SDS011;42298;53.638;9.876;2023-04-25T07:55:15;13.37;;;3.23;;
56399;SDS011;42298;53.638;9.876;2023-04-25T07:57:41;9.70;;;2.83;;
56399;SDS011;42298;53.638;9.876;2023-04-25T08:00:06;12.67;;;3.00;;
56399;SDS011;42298;53.638;9.876;2023-04-25T08:02:36;12.60;;;2.93;;
56399;SDS011;42298;53.638;9.876;2023-04-25T08:05:02;11.67;;;3.30;;
56399;SDS011;42298;53.638;9.876;2023-04-25T08:07:27;13.67;;;3.20;;
56399;SDS011;42298;53.638;9.876;2023-04-25T08:09:53;14.43;;;2.93;;
56399;SDS011;42298;53.638;9.876;2023-04-25T08:12:19;19.83;;;4.07;;
56399;SDS011;42298;53.638;9.876;2023-04-25T08:14:44;11.37;;;3.10;;
56399;SDS011;42298;53.638;9.876;2023-04-25T08:17:11;16.40;;;3.10;;
56399;SDS011;42298;53.638;9.876;2023-04-25T08:19:36;12.20;;;2.33;;
56399;SDS011;42298;53.638;9.876;2023-04-25T08:22:02;14.37;;;3.27;;
56399;SDS011;42298;53.638;9.876;2023-04-25T08:24:27;14.93;;;3.17;;
56399;SDS011;42298;53.638;9.876;2023-04-25T08:26:53;12.40;;;3.00;;
56399;SDS011;42298;53.638;9.876;2023-04-25T08:29:18;14.50;;;2.90;;
56399;SDS011;42298;53.638;9.876;2023-04-25T08:31:45;11.53;;;3.10;;
56399;SDS011;42298;53.638;9.876;2023-04-25T08:34:10;13.00;;;3.50;;
56399;SDS011;42298;53.638;9.876;2023-04-25T08:36:36;12.37;;;2.97;;
56399;SDS011;42298;53.638;9.876;2023-04-25T08:39:02;10.90;;;3.23;;
56399;SDS011;42298;53.638;9.876;2023-04-25T08:41:27;12.90;;;3.53;;
56399;SDS011;42298;53.638;9.876;2023-04-25T08:43:53;18.00;;;3.17;;
56399;SDS011;42298;53.638;9.876;2023-04-25T08:46:21;16.83;;;3.10;;
56399;SDS011;42298;53.638;9.876;2023-04-25T08:48:47;15.80;;;3.40;;
56399;SDS011;42298;53.638;9.876;2023-04-25T08:51:23;16.57;;;2.93;;
56399;SDS011;42298;53.638;9.876;2023-04-25T08:53:51;14.97;;;3.60;;
56399;SDS011;42298;53.638;9.876;2023-04-25T08:56:17;12.77;;;2.83;;
56399;SDS011;42298;53.638;9.876;2023-04-25T08:58:45;13.83;;;3.23;;
56399;SDS011;42298;53.638;9.876;2023-04-25T09:01:13;13.87;;;2.67;;
56399;SDS011;42298;53.638;9.876;2023-04-25T09:03:38;11.77;;;2.63;;
56399;SDS011;42298;53.638;9.876;2023-04-25T09:06:03;10.30;;;2.43;;
56399;SDS011;42298;53.638;9.876;2023-04-25T09:08:29;11.87;;;2.50;;
56399;SDS011;42298;53.638;9.876;2023-04-25T09:10:55;14.00;;;2.67;;
56399;SDS011;42298;53.638;9.876;2023-04-25T09:13:24;12.10;;;3.00;;
56399;SDS011;42298;53.638;9.876;2023-04-25T09:15:52;10.00;;;2.33;;
56399;SDS011;42298;53.638;9.876;2023-04-25T09:18:22;10.97;;;2.87;;
56399;SDS011;42298;53.638;9.876;2023-04-25T09:21:05;13.73;;;2.73;;
56399;SDS011;42298;53.638;9.876;2023-04-25T09:23:39;12.20;;;2.70;;
56399;SDS011;42298;53.638;9.876;2023-04-25T09:26:14;10.45;;;2.63;;
56399;SDS011;42298;53.638;9.876;2023-04-25T09:28:43;11.93;;;3.13;;
56399;SDS011;42298;53.638;9.876;2023-04-25T09:31:12;11.18;;;2.67;;
56399;SDS011;42298;53.638;9.876;2023-04-25T09:33:37;12.40;;;2.70;;
56399;SDS011;42298;53.638;9.876;2023-04-25T09:36:07;13.10;;;3.17;;
56399;SDS011;42298;53.638;9.876;2023-04-25T09:38:42;14.17;;;3.47;;
56399;SDS011;42298;53.638;9.876;2023-04-25T09:41:10;15.87;;;3.20;;
56399;SDS011;42298;53.638;9.876;2023-04-25T09:43:36;16.80;;;3.23;;
56399;SDS011;42298;53.638;9.876;2023-04-25T09:46:02;13.97;;;3.97;;
56399;SDS011;42298;53.638;9.876;2023-04-25T09:48:32;14.97;;;3.23;;
56399;SDS011;42298;53.638;9.876;2023-04-25T09:51:10;14.33;;;3.57;;
56399;SDS011;42298;53.638;9.876;2023-04-25T09:53:39;11.47;;;2.77;;
56399;SDS011;42298;53.638;9.876;2023-04-25T09:56:07;13.53;;;3.07;;
56399;SDS011;42298;53.638;9.876;2023-04-25T09:58:35;14.57;;;3.03;;
56399;SDS011;42298;53.638;9.876;2023-04-25T10:01:05;10.23;;;2.33;;
56399;SDS011;42298;53.638;9.876;2023-04-25T10:03:38;11.37;;;2.60;;
56399;SDS011;42298;53.638;9.876;2023-04-25T10:06:07;11.83;;;2.80;;
56399;SDS011;42298;53.638;9.876;2023-04-25T10:08:37;8.45;;;2.30;;
56399;SDS011;42298;53.638;9.876;2023-04-25T10:11:04;9.10;;;2.10;;
56399;SDS011;42298;53.638;9.876;2023-04-25T10:13:30;7.18;;;2.17;;
56399;SDS011;42298;53.638;9.876;2023-04-25T10:15:57;12.35;;;2.65;;
56399;SDS011;42298;53.638;9.876;2023-04-25T10:18:25;7.40;;;2.40;;
56399;SDS011;42298;53.638;9.876;2023-04-25T10:20:52;9.87;;;2.30;;
56399;SDS011;42298;53.638;9.876;2023-04-25T10:23:24;9.35;;;2.45;;
56399;SDS011;42298;53.638;9.876;2023-04-25T10:25:53;12.20;;;2.72;;
56399;SDS011;42298;53.638;9.876;2023-04-25T10:28:19;13.00;;;2.90;;
56399;SDS011;42298;53.638;9.876;2023-04-25T10:30:58;12.80;;;2.60;;
56399;SDS011;42298;53.638;9.876;2023-04-25T10:33:37;8.18;;;2.55;;
56399;SDS011;42298;53.638;9.876;2023-04-25T10:36:20;13.80;;;2.35;;
56399;SDS011;42298;53.638;9.876;2023-04-25T10:38:47;7.82;;;2.20;;
56399;SDS011;42298;53.638;9.876;2023-04-25T10:41:15;9.73;;;2.53;;
56399;SDS011;42298;53.638;9.876;2023-04-25T10:43:44;11.15;;;2.22;;
56399;SDS011;42298;53.638;9.876;2023-04-25T10:46:14;8.13;;;2.28;;
56399;SDS011;42298;53.638;9.876;2023-04-25T10:48:44;12.38;;;2.72;;
56399;SDS011;42298;53.638;9.876;2023-04-25T10:51:16;8.60;;;2.45;;
56399;SDS011;42298;53.638;9.876;2023-04-25T10:56:19;7.25;;;2.13;;
56399;SDS011;42298;53.638;9.876;2023-04-25T10:58:49;6.32;;;2.00;;
56399;SDS011;42298;53.638;9.876;2023-04-25T11:01:20;8.57;;;2.45;;
56399;SDS011;42298;53.638;9.876;2023-04-25T11:03:48;11.88;;;3.08;;
56399;SDS011;42298;53.638;9.876;2023-04-25T11:09:00;9.15;;;2.30;;
56399;SDS011;42298;53.638;9.876;2023-04-25T11:11:27;8.77;;;2.10;;
56399;SDS011;42298;53.638;9.876;2023-04-25T11:13:54;10.18;;;2.78;;
56399;SDS011;42298;53.638;9.876;2023-04-25T11:16:20;8.05;;;2.10;;
56399;SDS011;42298;53.638;9.876;2023-04-25T11:18:57;7.93;;;2.13;;
56399;SDS011;42298;53.638;9.876;2023-04-25T11:21:23;13.48;;;2.08;;
56399;SDS011;42298;53.638;9.876;2023-04-25T11:23:50;10.90;;;2.57;;
56399;SDS011;42298;53.638;9.876;2023-04-25T11:26:16;11.48;;;2.45;;
56399;SDS011;42298;53.638;9.876;2023-04-25T11:28:44;8.93;;;2.22;;
56399;SDS011;42298;53.638;9.876;2023-04-25T11:31:10;13.77;;;2.40;;
56399;SDS011;42298;53.638;9.876;2023-04-25T11:33:35;8.55;;;2.20;;
56399;SDS011;42298;53.638;9.876;2023-04-25T11:36:01;11.30;;;2.50;;
56399;SDS011;42298;53.638;9.876;2023-04-25T11:38:26;10.38;;;2.55;;
56399;SDS011;42298;53.638;9.876;2023-04-25T11:40:52;7.22;;;1.73;;
56399;SDS011;42298;53.638;9.876;2023-04-25T11:43:20;8.20;;;2.00;;
56399;SDS011;42298;53.638;9.876;2023-04-25T11:45:47;10.15;;;1.90;;
56399;SDS011;42298;53.638;9.876;2023-04-25T11:48:20;8.77;;;2.25;;
56399;SDS011;42298;53.638;9.876;2023-04-25T11:50:46;12.32;;;2.20;;
56399;SDS011;42298;53.638;9.876;2023-04-25T11:53:11;9.77;;;2.30;;
56399;SDS011;42298;53.638;9.876;2023-04-25T11:55:51;5.78;;;1.92;;
56399;SDS011;42298;53.638;9.876;2023-04-25T11:58:22;6.47;;;1.70;;
56399;SDS011;42298;53.638;9.876;2023-04-25T12:00:48;9.27;;;1.98;;
56399;SDS011;42298;53.638;9.876;2023-04-25T12:03:13;6.80;;;1.98;;
56399;SDS011;42298;53.638;9.876;2023-04-25T12:05:38;6.90;;;2.15;;
56399;SDS011;42298;53.638;9.876;2023-04-25T12:08:14;7.60;;;1.80;;
56399;SDS011;42298;53.638;9.876;2023-04-25T12:10:41;8.75;;;2.10;;
56399;SDS011;42298;53.638;9.876;2023-04-25T12:13:19;6.10;;;1.88;;
56399;SDS011;42298;53.638;9.876;2023-04-25T12:15:45;4.40;;;1.80;;
56399;SDS011;42298;53.638;9.876;2023-04-25T12:18:11;6.05;;;1.88;;
56399;SDS011;42298;53.638;9.876;2023-04-25T12:20:36;5.85;;;2.08;;
56399;SDS011;42298;53.638;9.876;2023-04-25T12:23:02;10.98;;;2.40;;
56399;SDS011;42298;53.638;9.876;2023-04-25T12:25:39;5.95;;;1.90;;
56399;SDS011;42298;53.638;9.876;2023-04-25T12:30:52;8.07;;;2.00;;
56399;SDS011;42298;53.638;9.876;2023-04-25T12:33:18;6.93;;;2.00;;
56399;SDS011;42298;53.638;9.876;2023-04-25T12:35:44;9.60;;;1.98;;
56399;SDS011;42298;53.638;9.876;2023-04-25T12:38:09;9.63;;;2.35;;
56399;SDS011;42298;53.638;9.876;2023-04-25T12:40:35;8.23;;;2.38;;
56399;SDS011;42298;53.638;9.876;2023-04-25T12:43:00;9.38;;;2.55;;
56399;SDS011;42298;53.638;9.876;2023-04-25T12:45:26;9.13;;;2.10;;
56399;SDS011;42298;53.638;9.876;2023-04-25T12:47:51;8.63;;;1.90;;
56399;SDS011;42298;53.638;9.876;2023-04-25T12:50:16;4.57;;;1.73;;
56399;SDS011;42298;53.638;9.876;2023-04-25T12:52:42;8.02;;;2.00;;
56399;SDS011;42298;53.638;9.876;2023-04-25T12:55:07;12.05;;;2.58;;
56399;SDS011;42298;53.638;9.876;2023-04-25T12:57:32;8.77;;;2.25;;
56399;SDS011;42298;53.638;9.876;2023-04-25T12:59:57;10.40;;;2.45;;
56399;SDS011;42298;53.638;9.876;2023-04-25T13:02:23;7.03;;;2.28;;
56399;SDS011;42298;53.638;9.876;2023-04-25T13:04:48;7.22;;;2.05;;
56399;SDS011;42298;53.638;9.876;2023-04-25T13:07:13;10.52;;;2.13;;
56399;SDS011;42298;53.638;9.876;2023-04-25T13:09:39;7.22;;;2.33;;
56399;SDS011;42298;53.638;9.876;2023-04-25T13:12:04;6.85;;;1.90;;
56399;SDS011;42298;53.638;9.876;2023-04-25T13:14:30;6.50;;;2.08;;
56399;SDS011;42298;53.638;9.876;2023-04-25T13:16:55;8.13;;;2.25;;
56399;SDS011;42298;53.638;9.876;2023-04-25T13:19:21;8.60;;;2.20;;
56399;SDS011;42298;53.638;9.876;2023-04-25T13:21:46;9.83;;;2.27;;
56399;SDS011;42298;53.638;9.876;2023-04-25T13:24:11;9.63;;;2.37;;
56399;SDS011;42298;53.638;9.876;2023-04-25T13:26:37;8.17;;;2.00;;
56399;SDS011;42298;53.638;9.876;2023-04-25T13:29:02;8.70;;;2.90;;
56399;SDS011;42298;53.638;9.876;2023-04-25T13:31:28;9.83;;;2.20;;
56399;SDS011;42298;53.638;9.876;2023-04-25T13:33:54;13.37;;;2.87;;
56399;SDS011;42298;53.638;9.876;2023-04-25T13:36:19;11.80;;;2.63;;
56399;SDS011;42298;53.638;9.876;2023-04-25T13:38:45;8.80;;;2.43;;
56399;SDS011;42298;53.638;9.876;2023-04-25T13:41:12;10.50;;;2.50;;
56399;SDS011;42298;53.638;9.876;2023-04-25T13:43:42;7.10;;;2.17;;
56399;SDS011;42298;53.638;9.876;2023-04-25T13:46:10;5.93;;;2.17;;
56399;SDS011;42298;53.638;9.876;2023-04-25T13:48:37;7.87;;;2.00;;
56399;SDS011;42298;53.638;9.876;2023-04-25T13:51:05;9.53;;;2.10;;
56399;SDS011;42298;53.638;9.876;2023-04-25T13:53:31;8.70;;;2.17;;
56399;SDS011;42298;53.638;9.876;2023-04-25T13:55:59;9.23;;;1.97;;
56399;SDS011;42298;53.638;9.876;2023-04-25T13:58:25;11.13;;;2.43;;
56399;SDS011;42298;53.638;9.876;2023-04-25T14:00:53;7.93;;;2.20;;
56399;SDS011;42298;53.638;9.876;2023-04-25T14:03:18;8.43;;;2.17;;
56399;SDS011;42298;53.638;9.876;2023-04-25T14:05:44;7.13;;;2.27;;
56399;SDS011;42298;53.638;9.876;2023-04-25T14:08:09;10.43;;;2.57;;
56399;SDS011;42298;53.638;9.876;2023-04-25T14:10:35;10.53;;;2.40;;
56399;SDS011;42298;53.638;9.876;2023-04-25T14:13:01;12.33;;;2.50;;
56399;SDS011;42298;53.638;9.876;2023-04-25T14:15:28;8.27;;;2.33;;
56399;SDS011;42298;53.638;9.876;2023-04-25T14:17:53;12.10;;;2.63;;
56399;SDS011;42298;53.638;9.876;2023-04-25T14:20:19;8.70;;;2.43;;
56399;SDS011;42298;53.638;9.876;2023-04-25T14:22:46;9.30;;;2.43;;
56399;SDS011;42298;53.638;9.876;2023-04-25T14:25:11;11.03;;;2.70;;
56399;SDS011;42298;53.638;9.876;2023-04-25T14:27:37;10.33;;;2.43;;
56399;SDS011;42298;53.638;9.876;2023-04-25T14:30:02;7.93;;;2.23;;
56399;SDS011;42298;53.638;9.876;2023-04-25T14:32:27;11.23;;;2.60;;
56399;SDS011;42298;53.638;9.876;2023-04-25T14:34:53;8.60;;;2.03;;
56399;SDS011;42298;53.638;9.876;2023-04-25T14:37:18;9.30;;;2.28;;
56399;SDS011;42298;53.638;9.876;2023-04-25T14:39:43;10.18;;;2.65;;
56399;SDS011;42298;53.638;9.876;2023-04-25T14:42:09;11.82;;;2.20;;